createdAt,value
2018-12-15T00:06:41.368Z,97794.45
2018-12-15T00:17:05.652Z,97790.52
2018-12-15T00:27:21.854Z,97790.52
2018-12-15T00:37:42.995Z,97803.80
2018-12-15T00:48:02.898Z,97818.91
2018-12-15T00:58:23.045Z,97820.42
2018-12-15T01:08:42.900Z,97826.91
2018-12-15T01:19:02.691Z,97836.36
2018-12-15T01:29:21.995Z,97845.50
2018-12-15T01:39:41.210Z,97847.75
2018-12-15T01:50:01.318Z,97853.41
2018-12-15T02:00:20.641Z,97855.62
2018-12-15T02:10:40.658Z,97853.28
2018-12-15T02:21:00.122Z,97858.44
2018-12-15T02:31:21.712Z,97852.59
2018-12-15T02:41:47.207Z,97837.00
2018-12-15T02:52:03.939Z,97845.06
2018-12-15T03:02:23.712Z,97847.75
2018-12-15T03:12:42.767Z,97857.75
2018-12-15T03:23:01.988Z,97853.59
2018-12-15T03:33:21.303Z,97857.23
2018-12-15T03:43:40.698Z,97844.76
2018-12-15T03:54:00.290Z,97842.99
2018-12-15T04:04:20.291Z,97849.13
2018-12-15T04:14:40.075Z,97856.02
2018-12-15T04:24:59.889Z,97845.49
2018-12-15T04:35:22.437Z,97843.81
2018-12-15T04:45:41.487Z,97843.64
2018-12-15T04:56:02.176Z,97847.02
2018-12-15T05:06:21.854Z,97843.81
2018-12-15T05:16:41.422Z,97854.20
2018-12-15T05:27:01.150Z,97872.91
2018-12-15T05:37:21.249Z,97862.95
2018-12-15T05:47:40.160Z,97872.64
2018-12-15T05:57:59.648Z,97884.20
2018-12-15T06:08:19.539Z,97883.82
2018-12-15T06:18:40.628Z,97885.11
2018-12-15T06:28:59.987Z,97892.56
2018-12-15T06:39:19.482Z,97885.33
2018-12-15T06:49:38.482Z,97895.98
2018-12-15T06:59:59.064Z,97901.52
2018-12-15T07:10:18.804Z,97904.50
2018-12-15T07:20:37.724Z,97906.59
2018-12-15T07:30:59.971Z,97907.98
2018-12-15T07:41:19.460Z,97929.20
2018-12-15T07:51:38.636Z,97927.56
2018-12-15T08:01:57.988Z,97934.80
2018-12-15T08:12:35.312Z,97938.66
2018-12-15T08:22:55.251Z,97941.50
2018-12-15T08:33:16.006Z,97938.36
2018-12-15T08:43:36.525Z,97952.08
2018-12-15T08:53:56.463Z,97957.47
2018-12-15T09:04:15.433Z,97944.88
2018-12-15T09:14:35.679Z,97941.56
2018-12-15T09:24:55.809Z,97942.25
2018-12-15T09:35:15.184Z,97943.03
2018-12-15T09:45:35.395Z,97931.14
2018-12-15T09:55:55.098Z,97918.80
2018-12-15T10:06:14.178Z,97918.80
2018-12-15T10:16:34.509Z,97907.28
2018-12-15T10:26:54.080Z,97907.28
2018-12-15T10:37:15.636Z,97893.16
2018-12-15T10:47:35.845Z,97881.52
2018-12-15T10:57:55.436Z,97866.82
2018-12-15T11:08:15.274Z,97872.70
2018-12-15T11:18:34.733Z,97860.95
2018-12-15T11:28:54.421Z,97740.62
2018-12-15T11:39:13.816Z,97846.69
2018-12-15T11:49:34.055Z,97839.10
2018-12-15T11:59:54.116Z,97836.44
2018-12-15T12:10:14.432Z,97836.44
2018-12-15T12:20:34.620Z,97837.75
2018-12-15T12:30:55.515Z,97837.48
2018-12-15T12:41:15.209Z,97818.14
2018-12-15T12:51:35.809Z,97818.14
2018-12-15T13:01:55.109Z,97823.38
2018-12-15T13:12:15.177Z,97820.98
2018-12-15T13:22:34.906Z,97827.62
2018-12-15T13:32:54.787Z,97827.62
2018-12-15T13:43:14.702Z,97840.25
2018-12-15T13:53:34.962Z,97836.12
2018-12-15T14:03:54.370Z,97834.41
2018-12-15T14:14:15.441Z,97831.66
2018-12-15T14:24:36.069Z,97833.35
2018-12-15T14:34:57.822Z,97841.23
2018-12-15T14:45:18.318Z,97843.66
2018-12-15T14:55:38.322Z,97857.21
2018-12-15T15:05:57.387Z,97856.27
2018-12-15T15:16:19.050Z,97857.20
2018-12-15T15:26:39.196Z,97868.67
2018-12-15T15:37:02.829Z,97866.15
2018-12-15T15:47:22.969Z,97862.22
2018-12-15T15:57:44.097Z,97860.89
2018-12-15T16:08:04.638Z,97860.89
2018-12-15T16:18:25.110Z,97858.56
2018-12-15T16:28:45.671Z,97849.16
2018-12-15T16:39:07.873Z,97860.89
2018-12-15T16:49:30.557Z,97857.71
2018-12-15T16:59:50.612Z,97861.81
2018-12-15T17:10:10.450Z,97864.15
2018-12-15T17:20:32.650Z,97871.73
2018-12-15T17:30:52.490Z,97866.71
2018-12-15T17:41:12.476Z,97870.69
2018-12-15T17:51:33.068Z,97876.58
2018-12-15T18:01:54.110Z,97872.48
2018-12-15T18:12:15.044Z,97866.06
2018-12-15T18:22:35.113Z,97867.92
2018-12-15T18:32:55.422Z,97867.45
2018-12-15T18:43:15.785Z,97849.00
2018-12-15T18:53:37.140Z,97855.38
2018-12-15T19:03:57.109Z,97844.93
2018-12-15T19:14:17.248Z,97829.52
2018-12-15T19:24:38.462Z,97823.16
2018-12-15T19:34:57.900Z,97818.39
2018-12-15T19:45:18.416Z,97801.45
2018-12-15T19:55:39.844Z,97791.94
2018-12-15T20:06:00.055Z,97791.94
2018-12-15T20:16:20.071Z,97801.28
2018-12-15T20:26:40.228Z,97780.02
2018-12-15T20:37:00.066Z,97770.86
2018-12-15T20:47:20.822Z,97768.00
2018-12-15T20:57:40.662Z,97752.41
2018-12-15T21:08:00.993Z,97749.61
2018-12-15T21:18:21.555Z,97741.97
2018-12-15T21:28:40.870Z,97726.63
2018-12-15T21:39:00.661Z,97692.36
2018-12-15T21:49:20.213Z,97692.36
2018-12-15T21:59:39.911Z,97688.33
2018-12-15T22:09:59.349Z,97680.65
2018-12-15T22:20:19.245Z,97671.78
2018-12-15T22:30:38.845Z,97656.72
2018-12-15T22:40:58.486Z,97639.27
2018-12-15T22:51:18.225Z,97627.16
2018-12-15T23:01:47.349Z,97612.02
2018-12-15T23:12:06.917Z,97608.03
2018-12-15T23:22:26.465Z,97595.55
2018-12-15T23:32:46.398Z,97605.02
2018-12-15T23:43:06.100Z,97598.78
2018-12-15T23:53:26.049Z,97577.02
